createdAt,value
2023-03-29T00:02:07.835Z,3.50
2023-03-29T00:04:35.352Z,3.63
2023-03-29T00:07:04.536Z,3.97
2023-03-29T00:09:33.224Z,3.47
2023-03-29T00:12:01.746Z,3.45
2023-03-29T00:14:30.644Z,3.97
2023-03-29T00:16:58.556Z,3.65
2023-03-29T00:19:25.895Z,3.72
2023-03-29T00:21:53.160Z,3.45
2023-03-29T00:24:21.548Z,3.53
2023-03-29T00:26:48.950Z,3.33
2023-03-29T00:29:16.671Z,3.40
2023-03-29T00:31:53.664Z,3.63
2023-03-29T00:34:21.407Z,3.45
2023-03-29T00:36:52.958Z,3.08
2023-03-29T00:39:21.263Z,3.85
2023-03-29T00:41:49.346Z,3.45
2023-03-29T00:44:35.576Z,3.30
2023-03-29T00:49:29.931Z,3.17
2023-03-29T00:51:57.247Z,3.20
2023-03-29T00:54:24.916Z,3.03
2023-03-29T00:56:52.508Z,3.30
2023-03-29T00:59:21.608Z,3.40
2023-03-29T01:01:50.829Z,3.17
2023-03-29T01:04:33.869Z,3.15
2023-03-29T01:07:07.484Z,3.20
2023-03-29T01:09:35.996Z,3.00
2023-03-29T01:12:05.236Z,3.22
2023-03-29T01:14:38.313Z,3.38
2023-03-29T01:17:06.489Z,3.83
2023-03-29T01:19:38.692Z,3.20
2023-03-29T01:22:05.967Z,3.22
2023-03-29T01:24:33.186Z,3.50
2023-03-29T01:27:12.523Z,3.13
2023-03-29T01:29:47.059Z,3.20
2023-03-29T01:32:35.392Z,3.05
2023-03-29T01:35:10.954Z,3.45
2023-03-29T01:37:56.764Z,3.60
2023-03-29T01:42:57.147Z,2.92
2023-03-29T01:45:39.421Z,3.03
2023-03-29T01:48:12.838Z,2.72
2023-03-29T01:50:44.288Z,3.17
2023-03-29T01:53:18.967Z,2.85
2023-03-29T01:55:52.503Z,3.25
2023-03-29T01:58:22.639Z,2.97
2023-03-29T02:00:50.851Z,2.55
2023-03-29T02:03:19.658Z,2.95
2023-03-29T02:05:47.088Z,2.95
2023-03-29T02:08:15.336Z,2.95
2023-03-29T02:10:42.941Z,3.08
2023-03-29T02:13:10.118Z,3.13
2023-03-29T02:15:37.373Z,2.70
2023-03-29T02:18:06.709Z,2.78
2023-03-29T02:20:39.171Z,2.85
2023-03-29T02:23:18.104Z,3.25
2023-03-29T02:25:47.202Z,2.65
2023-03-29T02:28:14.932Z,3.00
2023-03-29T02:30:51.451Z,2.85
2023-03-29T02:33:21.848Z,2.80
2023-03-29T02:36:03.690Z,2.92
2023-03-29T02:38:31.405Z,2.90
2023-03-29T02:40:59.364Z,2.80
2023-03-29T02:43:28.304Z,2.67
2023-03-29T02:45:56.602Z,3.15
2023-03-29T02:48:25.922Z,2.90
2023-03-29T02:50:55.840Z,3.00
2023-03-29T02:53:40.493Z,2.58
2023-03-29T02:56:08.619Z,2.70
2023-03-29T02:58:36.705Z,2.70
2023-03-29T03:01:06.875Z,2.58
2023-03-29T03:03:35.841Z,2.55
2023-03-29T03:06:03.550Z,2.78
2023-03-29T03:08:30.756Z,2.70
2023-03-29T03:10:58.295Z,2.80
2023-03-29T03:13:25.796Z,2.72
2023-03-29T03:15:54.089Z,2.83
2023-03-29T03:18:22.169Z,2.95
2023-03-29T03:20:59.511Z,2.90
2023-03-29T03:23:26.820Z,2.67
2023-03-29T03:25:54.289Z,2.75
2023-03-29T03:28:22.179Z,2.70
2023-03-29T03:30:49.641Z,3.15
2023-03-29T03:33:18.126Z,2.92
2023-03-29T03:35:46.554Z,3.00
2023-03-29T03:38:14.036Z,2.65
2023-03-29T03:40:41.189Z,2.50
2023-03-29T03:43:08.791Z,2.20
2023-03-29T03:45:36.089Z,3.17
2023-03-29T03:48:03.315Z,2.72
2023-03-29T03:50:30.527Z,3.28
2023-03-29T03:52:57.745Z,2.80
2023-03-29T03:55:24.898Z,2.65
2023-03-29T03:57:52.542Z,2.50
2023-03-29T04:00:19.985Z,2.40
2023-03-29T04:02:48.337Z,2.72
2023-03-29T04:05:17.105Z,2.35
2023-03-29T04:07:44.415Z,2.22
2023-03-29T04:10:11.604Z,2.72
2023-03-29T04:12:39.172Z,2.70
2023-03-29T04:15:07.186Z,2.88
2023-03-29T04:17:34.446Z,2.70
2023-03-29T04:20:06.088Z,2.70
2023-03-29T04:22:33.218Z,3.03
2023-03-29T04:25:00.705Z,3.00
2023-03-29T04:27:27.943Z,2.67
2023-03-29T04:29:55.115Z,2.65
2023-03-29T04:32:22.348Z,2.80
2023-03-29T04:34:49.509Z,2.63
2023-03-29T04:37:21.942Z,2.42
2023-03-29T04:39:49.831Z,2.97
2023-03-29T04:42:17.816Z,2.83
2023-03-29T04:44:45.065Z,2.80
2023-03-29T04:47:15.486Z,2.67
2023-03-29T04:49:42.696Z,3.22
2023-03-29T04:52:09.973Z,2.72
2023-03-29T04:54:37.370Z,2.65
2023-03-29T04:57:05.650Z,3.40
2023-03-29T04:59:32.942Z,2.83
2023-03-29T05:02:01.233Z,2.40
2023-03-29T05:04:28.596Z,2.38
2023-03-29T05:06:56.142Z,2.85
2023-03-29T05:09:24.799Z,2.60
2023-03-29T05:11:52.379Z,2.72
2023-03-29T05:14:19.583Z,2.80
2023-03-29T05:16:46.901Z,2.60
2023-03-29T05:19:14.035Z,2.50
2023-03-29T05:21:43.104Z,2.20
2023-03-29T05:24:12.460Z,2.85
2023-03-29T05:26:40.055Z,2.97
2023-03-29T05:29:09.167Z,2.67
2023-03-29T05:31:39.538Z,2.72
2023-03-29T05:34:07.411Z,2.50
2023-03-29T05:36:34.591Z,3.40
2023-03-29T05:39:01.961Z,2.60
2023-03-29T05:41:29.307Z,3.00
2023-03-29T05:43:56.729Z,2.67
2023-03-29T05:46:23.960Z,2.67
2023-03-29T05:48:51.706Z,2.70
2023-03-29T05:51:19.143Z,2.35
2023-03-29T05:53:46.538Z,3.28
2023-03-29T05:56:16.109Z,3.10
2023-03-29T05:58:43.957Z,2.75
2023-03-29T06:01:14.848Z,2.80
2023-03-29T06:03:42.899Z,2.75
2023-03-29T06:06:10.440Z,2.63
2023-03-29T06:08:38.820Z,2.78
2023-03-29T06:11:08.849Z,3.15
2023-03-29T06:13:37.781Z,2.90
2023-03-29T06:16:08.549Z,3.17
2023-03-29T06:18:36.127Z,2.80
2023-03-29T06:21:04.060Z,2.95
2023-03-29T06:23:31.621Z,2.78
2023-03-29T06:26:00.264Z,3.15
2023-03-29T06:28:27.734Z,2.70
2023-03-29T06:30:56.522Z,2.60
2023-03-29T06:33:25.281Z,2.42
2023-03-29T06:35:52.796Z,2.55
2023-03-29T06:38:20.868Z,3.15
2023-03-29T06:40:48.372Z,3.00
2023-03-29T06:43:15.766Z,2.88
2023-03-29T06:45:43.717Z,3.08
2023-03-29T06:48:11.308Z,2.60
2023-03-29T06:50:38.621Z,3.15
2023-03-29T06:53:06.025Z,2.80
2023-03-29T06:55:33.486Z,2.90
2023-03-29T06:58:02.662Z,2.75
2023-03-29T07:00:30.629Z,2.53
2023-03-29T07:03:00.680Z,2.92
2023-03-29T07:05:28.341Z,3.05
2023-03-29T07:08:13.796Z,2.70
2023-03-29T07:10:42.363Z,3.08
2023-03-29T07:13:13.201Z,3.33
2023-03-29T07:15:41.424Z,2.95
2023-03-29T07:18:15.639Z,3.30
2023-03-29T07:20:43.174Z,3.30
2023-03-29T07:23:11.300Z,3.22
2023-03-29T07:25:39.273Z,2.78
2023-03-29T07:28:06.730Z,3.08
2023-03-29T07:30:34.283Z,2.92
2023-03-29T07:33:01.534Z,3.10
2023-03-29T07:35:29.155Z,3.28
2023-03-29T07:37:56.420Z,3.47
2023-03-29T07:40:24.485Z,4.20
2023-03-29T07:42:53.964Z,4.05
2023-03-29T07:45:26.051Z,3.25
2023-03-29T07:47:58.333Z,3.50
2023-03-29T07:50:26.164Z,3.15
2023-03-29T07:52:54.043Z,3.38
2023-03-29T07:55:22.161Z,3.65
2023-03-29T07:57:49.998Z,3.30
2023-03-29T08:00:19.633Z,3.55
2023-03-29T08:02:48.037Z,3.67
2023-03-29T08:05:23.235Z,3.42
2023-03-29T08:07:56.878Z,3.67
2023-03-29T08:10:24.370Z,3.60
2023-03-29T08:12:52.511Z,3.75
2023-03-29T08:15:19.820Z,3.80
2023-03-29T08:17:47.015Z,3.83
2023-03-29T08:20:16.705Z,3.70
2023-03-29T08:22:44.386Z,4.30
2023-03-29T08:25:12.130Z,4.10
2023-03-29T08:27:39.889Z,4.38
2023-03-29T08:30:09.585Z,3.63
2023-03-29T08:32:37.704Z,4.22
2023-03-29T08:35:06.741Z,4.28
2023-03-29T08:37:34.422Z,4.05
2023-03-29T08:40:01.758Z,5.00
2023-03-29T08:42:49.209Z,4.25
2023-03-29T08:45:22.967Z,4.20
2023-03-29T08:47:53.298Z,3.97
2023-03-29T08:50:21.583Z,4.15
2023-03-29T08:52:49.194Z,4.88
2023-03-29T08:55:29.178Z,4.53
2023-03-29T08:57:56.620Z,3.95
2023-03-29T09:00:32.977Z,4.32
2023-03-29T09:03:02.718Z,4.20
2023-03-29T09:05:38.783Z,4.28
2023-03-29T09:08:13.339Z,4.57
2023-03-29T09:10:43.831Z,4.70
2023-03-29T09:13:13.871Z,4.30
2023-03-29T09:15:45.178Z,4.43
2023-03-29T09:18:20.609Z,4.63
2023-03-29T09:21:01.527Z,4.40
2023-03-29T09:23:34.926Z,4.97
2023-03-29T09:26:09.862Z,4.10
2023-03-29T09:28:38.513Z,4.90
2023-03-29T09:31:16.729Z,5.13
2023-03-29T09:33:47.717Z,4.40
2023-03-29T09:36:19.379Z,4.63
2023-03-29T09:38:54.049Z,6.22
2023-03-29T09:41:27.695Z,5.97
2023-03-29T09:43:56.458Z,5.35
2023-03-29T09:46:29.082Z,5.55
2023-03-29T09:48:56.800Z,5.90
2023-03-29T09:51:27.569Z,5.50
2023-03-29T09:53:56.541Z,6.85
2023-03-29T09:56:24.097Z,6.18
2023-03-29T09:58:51.344Z,6.18
2023-03-29T10:01:19.190Z,6.63
2023-03-29T10:03:51.566Z,6.50
2023-03-29T10:06:20.411Z,6.30
2023-03-29T10:08:51.761Z,8.90
2023-03-29T10:11:30.007Z,33.58
2023-03-29T10:14:01.743Z,23.27
2023-03-29T10:16:38.063Z,20.83
2023-03-29T10:19:17.384Z,21.73
2023-03-29T10:21:44.629Z,21.98
2023-03-29T10:24:11.847Z,19.70
2023-03-29T10:26:39.334Z,17.42
2023-03-29T10:29:08.347Z,15.85
2023-03-29T10:31:41.520Z,14.80
2023-03-29T10:34:09.437Z,13.68
2023-03-29T10:36:37.051Z,13.18
2023-03-29T10:39:06.345Z,13.98
2023-03-29T10:41:34.652Z,11.65
2023-03-29T10:44:02.236Z,12.00
2023-03-29T10:46:36.228Z,12.25
2023-03-29T10:49:10.035Z,11.52
2023-03-29T10:51:37.539Z,11.82
2023-03-29T10:54:05.549Z,12.05
2023-03-29T10:56:43.186Z,11.63
2023-03-29T10:59:29.458Z,11.20
2023-03-29T11:02:02.881Z,10.27
2023-03-29T11:04:34.530Z,9.55
2023-03-29T11:07:22.538Z,10.05
2023-03-29T11:09:49.854Z,10.18
2023-03-29T11:12:24.202Z,9.93
2023-03-29T11:14:56.511Z,10.07
2023-03-29T11:17:43.949Z,9.43
2023-03-29T11:20:11.147Z,8.25
2023-03-29T11:22:57.314Z,9.60
2023-03-29T11:27:57.722Z,9.02
2023-03-29T11:30:36.177Z,9.05
2023-03-29T11:33:03.661Z,8.73
2023-03-29T11:35:31.623Z,8.90
2023-03-29T11:38:17.956Z,9.27
2023-03-29T11:40:50.573Z,9.00
2023-03-29T11:43:21.441Z,8.68
2023-03-29T11:45:54.663Z,8.52
2023-03-29T11:48:27.197Z,7.80
2023-03-29T11:51:17.802Z,7.90
2023-03-29T11:53:49.092Z,7.70
2023-03-29T11:56:20.105Z,8.45
2023-03-29T11:58:51.359Z,7.90
2023-03-29T12:01:24.896Z,7.80
2023-03-29T12:04:00.057Z,8.05
2023-03-29T12:06:30.187Z,6.63
2023-03-29T12:09:08.697Z,7.97
2023-03-29T12:11:38.736Z,7.10
2023-03-29T12:14:10.479Z,7.15
2023-03-29T12:16:37.748Z,7.00
2023-03-29T12:19:16.468Z,7.38
2023-03-29T12:21:45.537Z,7.00
2023-03-29T12:24:14.002Z,6.88
2023-03-29T12:26:53.818Z,7.25
2023-03-29T12:29:21.089Z,6.97
2023-03-29T12:32:01.548Z,7.22
2023-03-29T12:34:43.891Z,6.60
2023-03-29T12:37:20.474Z,6.88
2023-03-29T12:39:48.833Z,6.18
2023-03-29T12:42:16.101Z,7.32
2023-03-29T12:44:49.504Z,6.10
2023-03-29T12:47:23.736Z,7.07
2023-03-29T12:49:54.034Z,7.28
2023-03-29T12:52:30.502Z,6.70
2023-03-29T12:54:59.274Z,6.65
2023-03-29T12:57:40.820Z,6.60
2023-03-29T13:00:27.013Z,7.05
2023-03-29T13:05:29.239Z,6.13
2023-03-29T13:07:56.403Z,7.25
2023-03-29T13:10:43.855Z,7.20
2023-03-29T13:13:13.610Z,6.45
2023-03-29T13:15:41.263Z,6.35
2023-03-29T13:18:20.667Z,6.03
2023-03-29T13:20:47.908Z,6.63
2023-03-29T13:23:17.451Z,6.68
2023-03-29T13:25:48.020Z,7.13
2023-03-29T13:28:24.233Z,7.40
2023-03-29T13:30:55.465Z,8.10
2023-03-29T13:33:31.644Z,7.50
2023-03-29T13:36:16.941Z,7.18
2023-03-29T13:38:51.652Z,7.73
2023-03-29T13:41:31.786Z,8.85
2023-03-29T13:43:59.291Z,8.18
2023-03-29T13:46:37.564Z,7.55
2023-03-29T13:49:07.324Z,8.55
2023-03-29T13:51:38.119Z,7.75
2023-03-29T13:54:21.813Z,7.07
2023-03-29T13:56:52.282Z,7.88
2023-03-29T13:59:22.071Z,8.57
2023-03-29T14:01:54.633Z,8.15
2023-03-29T14:04:24.400Z,8.35
2023-03-29T14:06:53.949Z,7.63
2023-03-29T14:09:23.249Z,8.23
2023-03-29T14:11:51.078Z,7.80
2023-03-29T14:14:22.274Z,7.57
2023-03-29T14:16:49.574Z,7.60
2023-03-29T14:19:19.238Z,8.15
2023-03-29T14:21:46.730Z,7.50
2023-03-29T14:24:18.325Z,6.38
2023-03-29T14:26:47.450Z,6.05
2023-03-29T14:29:15.764Z,6.22
2023-03-29T14:31:43.267Z,6.10
2023-03-29T14:34:15.262Z,5.85
2023-03-29T14:36:44.976Z,5.50
2023-03-29T14:39:13.911Z,6.53
2023-03-29T14:41:44.005Z,5.68
2023-03-29T14:44:13.974Z,5.43
2023-03-29T14:46:42.037Z,5.57
2023-03-29T14:49:10.919Z,5.68
2023-03-29T14:51:40.438Z,6.60
2023-03-29T14:54:08.299Z,5.55
2023-03-29T14:56:35.680Z,5.85
2023-03-29T14:59:04.584Z,5.28
2023-03-29T15:01:32.275Z,6.10
2023-03-29T15:04:03.984Z,5.68
2023-03-29T15:06:31.654Z,5.50
2023-03-29T15:09:06.125Z,5.80
2023-03-29T15:11:34.483Z,5.90
2023-03-29T15:14:04.369Z,5.43
2023-03-29T15:16:32.338Z,5.30
2023-03-29T15:19:01.688Z,5.70
2023-03-29T15:21:33.281Z,5.88
2023-03-29T15:24:01.554Z,5.35
2023-03-29T15:26:31.447Z,5.60
2023-03-29T15:29:12.523Z,5.72
2023-03-29T15:31:41.641Z,5.57
2023-03-29T15:34:12.842Z,6.32
2023-03-29T15:36:45.181Z,5.22
2023-03-29T15:39:17.048Z,4.82
2023-03-29T15:41:45.309Z,5.32
2023-03-29T15:44:15.648Z,5.63
2023-03-29T15:46:42.923Z,5.57
2023-03-29T15:49:13.374Z,6.15
2023-03-29T15:51:40.885Z,4.85
2023-03-29T15:54:09.203Z,4.82
2023-03-29T15:56:41.961Z,6.30
2023-03-29T15:59:12.192Z,5.25
2023-03-29T16:01:40.254Z,5.53
2023-03-29T16:04:10.919Z,5.93
2023-03-29T16:06:38.466Z,5.68
2023-03-29T16:09:07.003Z,4.95
2023-03-29T16:11:34.622Z,5.68
2023-03-29T16:14:01.972Z,4.90
2023-03-29T16:16:29.464Z,5.35
2023-03-29T16:18:56.811Z,5.65
2023-03-29T16:21:24.438Z,5.10
2023-03-29T16:23:51.800Z,5.20
2023-03-29T16:26:18.995Z,5.00
2023-03-29T16:28:46.238Z,5.05
2023-03-29T16:31:14.498Z,5.22
2023-03-29T16:33:41.847Z,5.07
2023-03-29T16:36:09.240Z,5.25
2023-03-29T16:38:36.584Z,4.38
2023-03-29T16:41:07.476Z,5.07
2023-03-29T16:43:35.354Z,5.10
2023-03-29T16:46:02.866Z,4.63
2023-03-29T16:48:30.177Z,5.60
2023-03-29T16:50:57.507Z,5.47
2023-03-29T16:53:24.697Z,5.28
2023-03-29T16:55:51.902Z,5.13
2023-03-29T16:58:19.193Z,5.18
2023-03-29T17:00:48.194Z,5.05
2023-03-29T17:03:16.827Z,5.82
2023-03-29T17:05:51.910Z,5.13
2023-03-29T17:08:19.847Z,5.22
2023-03-29T17:10:47.074Z,4.70
2023-03-29T17:13:14.272Z,5.68
2023-03-29T17:15:41.585Z,4.97
2023-03-29T17:18:09.196Z,4.32
2023-03-29T17:20:39.782Z,4.85
2023-03-29T17:23:08.727Z,4.45
2023-03-29T17:25:36.134Z,4.55
2023-03-29T17:28:03.457Z,4.35
2023-03-29T17:30:30.918Z,4.75
2023-03-29T17:32:58.227Z,4.68
2023-03-29T17:35:26.898Z,4.80
2023-03-29T17:37:54.741Z,4.95
2023-03-29T17:40:22.445Z,5.82
2023-03-29T17:42:52.366Z,5.20
2023-03-29T17:45:19.788Z,5.30
2023-03-29T17:47:47.044Z,5.05
2023-03-29T17:50:14.289Z,4.78
2023-03-29T17:52:41.426Z,5.00
2023-03-29T17:55:13.676Z,4.80
2023-03-29T17:57:41.682Z,5.28
2023-03-29T18:00:10.772Z,5.38
2023-03-29T18:02:38.165Z,4.72
2023-03-29T18:05:05.767Z,4.75
2023-03-29T18:07:33.019Z,4.90
2023-03-29T18:10:00.415Z,4.80
2023-03-29T18:12:28.417Z,4.88
2023-03-29T18:14:58.875Z,4.68
2023-03-29T18:17:27.431Z,4.68
2023-03-29T18:19:54.844Z,4.80
2023-03-29T18:22:23.941Z,4.70
2023-03-29T18:24:51.542Z,4.35
2023-03-29T18:27:19.017Z,5.55
2023-03-29T18:29:46.246Z,4.97
2023-03-29T18:32:13.610Z,4.72
2023-03-29T18:34:40.950Z,5.15
2023-03-29T18:37:14.430Z,4.38
2023-03-29T18:39:42.038Z,4.93
2023-03-29T18:42:11.642Z,4.32
2023-03-29T18:44:40.282Z,4.78
2023-03-29T18:47:08.310Z,5.30
2023-03-29T18:49:36.685Z,5.00
2023-03-29T18:52:05.807Z,5.10
2023-03-29T18:54:33.038Z,4.90
2023-03-29T18:57:00.603Z,5.28
2023-03-29T18:59:27.881Z,5.18
2023-03-29T19:01:55.113Z,4.70
2023-03-29T19:04:23.504Z,4.78
2023-03-29T19:06:53.213Z,5.05
2023-03-29T19:09:20.396Z,4.10
2023-03-29T19:11:48.047Z,4.97
2023-03-29T19:14:17.389Z,4.28
2023-03-29T19:16:44.567Z,4.63
2023-03-29T19:19:12.832Z,4.40
2023-03-29T19:21:41.343Z,4.88
2023-03-29T19:24:08.913Z,4.13
2023-03-29T19:26:36.120Z,4.00
2023-03-29T19:29:03.522Z,4.32
2023-03-29T19:31:31.693Z,4.68
2023-03-29T19:33:58.934Z,4.70
2023-03-29T19:36:26.209Z,4.25
2023-03-29T19:38:54.109Z,4.32
2023-03-29T19:41:22.108Z,4.53
2023-03-29T19:43:49.331Z,5.40
2023-03-29T19:46:16.699Z,4.88
2023-03-29T19:48:44.011Z,4.35
2023-03-29T19:51:12.014Z,5.05
2023-03-29T19:53:41.620Z,4.70
2023-03-29T19:56:10.912Z,5.05
2023-03-29T19:58:38.351Z,4.55
2023-03-29T20:01:06.033Z,5.22
2023-03-29T20:03:34.024Z,5.22
2023-03-29T20:06:01.659Z,4.43
2023-03-29T20:08:28.860Z,4.65
2023-03-29T20:11:10.214Z,4.78
2023-03-29T20:13:44.793Z,4.60
2023-03-29T20:16:16.288Z,4.80
2023-03-29T20:18:47.179Z,4.30
2023-03-29T20:21:16.684Z,5.30
2023-03-29T20:23:44.288Z,4.80
2023-03-29T20:26:11.506Z,5.38
2023-03-29T20:28:38.760Z,5.38
2023-03-29T20:31:07.124Z,5.20
2023-03-29T20:33:34.325Z,4.95
2023-03-29T20:36:01.680Z,4.50
2023-03-29T20:38:29.007Z,4.60
2023-03-29T20:40:56.200Z,4.45
2023-03-29T20:43:24.360Z,4.40
2023-03-29T20:45:53.463Z,4.85
2023-03-29T20:48:23.441Z,4.70
2023-03-29T20:50:51.325Z,5.25
2023-03-29T20:53:20.272Z,4.43
2023-03-29T20:55:47.968Z,4.47
2023-03-29T20:58:16.147Z,4.60
2023-03-29T21:00:43.787Z,4.47
2023-03-29T21:03:11.646Z,4.50
2023-03-29T21:05:39.106Z,5.65
2023-03-29T21:08:06.466Z,4.75
2023-03-29T21:10:33.679Z,5.13
2023-03-29T21:13:02.346Z,5.38
2023-03-29T21:15:31.088Z,5.32
2023-03-29T21:17:58.868Z,4.95
2023-03-29T21:20:27.526Z,4.72
2023-03-29T21:22:54.899Z,6.18
2023-03-29T21:25:22.252Z,4.72
2023-03-29T21:27:49.464Z,4.85
2023-03-29T21:30:17.038Z,5.07
2023-03-29T21:32:44.231Z,4.47
2023-03-29T21:35:11.609Z,4.57
2023-03-29T21:37:38.879Z,4.80
2023-03-29T21:40:08.305Z,4.53
2023-03-29T21:42:35.700Z,4.53
2023-03-29T21:45:03.313Z,4.93
2023-03-29T21:47:30.684Z,4.85
2023-03-29T21:49:57.868Z,4.35
2023-03-29T21:52:25.064Z,4.55
2023-03-29T21:54:52.291Z,4.72
2023-03-29T21:57:19.524Z,4.72
2023-03-29T21:59:46.716Z,4.75
2023-03-29T22:02:13.963Z,4.65
2023-03-29T22:04:41.342Z,4.35
2023-03-29T22:07:10.599Z,4.80
2023-03-29T22:09:41.261Z,4.38
2023-03-29T22:12:09.779Z,4.75
2023-03-29T22:14:37.317Z,4.97
2023-03-29T22:17:06.259Z,4.18
2023-03-29T22:19:34.557Z,4.43
2023-03-29T22:22:01.896Z,5.05
2023-03-29T22:24:29.644Z,4.50
2023-03-29T22:26:56.884Z,4.95
2023-03-29T22:29:24.143Z,4.40
2023-03-29T22:31:51.378Z,4.72
2023-03-29T22:34:18.592Z,4.10
2023-03-29T22:36:45.816Z,4.60
2023-03-29T22:39:13.413Z,4.03
2023-03-29T22:41:41.175Z,4.05
2023-03-29T22:44:08.378Z,4.60
2023-03-29T22:46:35.676Z,4.22
2023-03-29T22:49:03.105Z,4.18
2023-03-29T22:51:30.568Z,4.05
2023-03-29T22:53:57.766Z,3.90
2023-03-29T22:56:25.018Z,4.10
2023-03-29T22:58:52.297Z,3.72
2023-03-29T23:01:19.571Z,4.20
2023-03-29T23:03:46.771Z,3.70
2023-03-29T23:06:14.003Z,3.95
2023-03-29T23:08:41.268Z,3.53
2023-03-29T23:11:08.525Z,3.58
2023-03-29T23:13:35.952Z,4.40
2023-03-29T23:16:03.663Z,3.97
2023-03-29T23:18:32.048Z,4.30
2023-03-29T23:21:00.181Z,3.80
2023-03-29T23:23:28.272Z,3.88
2023-03-29T23:25:56.129Z,3.75
2023-03-29T23:28:27.618Z,4.13
2023-03-29T23:31:05.981Z,3.88
2023-03-29T23:33:35.163Z,4.00
2023-03-29T23:36:03.777Z,3.58
2023-03-29T23:38:31.972Z,4.15
2023-03-29T23:41:00.830Z,3.60
2023-03-29T23:43:32.613Z,3.80
2023-03-29T23:46:01.150Z,3.72
2023-03-29T23:48:28.774Z,3.80
2023-03-29T23:50:58.917Z,3.67
2023-03-29T23:53:28.486Z,4.10
2023-03-29T23:56:00.410Z,3.47
2023-03-29T23:58:32.252Z,3.85
